createdAt,value
2017-05-04T00:01:10.413Z,1015.32
2017-05-04T00:02:21.460Z,1015.29
2017-05-04T00:03:32.535Z,1015.3
2017-05-04T00:04:43.574Z,1015.3
2017-05-04T00:05:54.616Z,1015.3
2017-05-04T00:07:05.848Z,1015.26
2017-05-04T00:08:16.877Z,1015.24
2017-05-04T00:09:28.110Z,1015.26
2017-05-04T00:10:39.130Z,1015.25
2017-05-04T00:11:50.155Z,1015.25
2017-05-04T00:13:01.378Z,1015.23
2017-05-04T00:14:12.459Z,1015.23
2017-05-04T00:15:23.690Z,1015.24
2017-05-04T00:16:34.726Z,1015.22
2017-05-04T00:17:45.991Z,1015.24
2017-05-04T00:18:57.023Z,1015.26
2017-05-04T00:20:08.113Z,1015.23
2017-05-04T00:21:19.155Z,1015.23
2017-05-04T00:22:30.193Z,1015.23
2017-05-04T00:23:41.218Z,1015.26
2017-05-04T00:24:52.253Z,1015.22
2017-05-04T00:26:03.289Z,1015.21
2017-05-04T00:27:14.318Z,1015.25
2017-05-04T00:28:25.347Z,1015.31
2017-05-04T00:29:36.378Z,1015.27
2017-05-04T00:30:47.609Z,1015.24
2017-05-04T00:31:58.631Z,1015.19
2017-05-04T00:33:09.669Z,1015.2
2017-05-04T00:34:20.711Z,1015.18
2017-05-04T00:35:31.752Z,1015.18
2017-05-04T00:36:42.782Z,1015.16
2017-05-04T00:37:53.874Z,1015.11
2017-05-04T00:39:05.102Z,1015.06
2017-05-04T00:40:16.135Z,1015.12
2017-05-04T00:41:27.156Z,1015.08
2017-05-04T00:42:38.192Z,1015.1
2017-05-04T00:43:49.428Z,1015.11
2017-05-04T00:45:00.474Z,1015.09
2017-05-04T00:46:11.700Z,1015.1
2017-05-04T00:47:22.784Z,1015.05
2017-05-04T00:48:33.816Z,1015.07
2017-05-04T00:49:44.860Z,1015.05
2017-05-04T00:50:56.107Z,1015.08
2017-05-04T00:52:07.148Z,1015.07
2017-05-04T00:53:18.190Z,1015.05
2017-05-04T00:54:29.437Z,1015.06
2017-05-04T00:55:40.458Z,1015.08
2017-05-04T00:56:51.493Z,1015.07
2017-05-04T00:58:02.581Z,1015.04
2017-05-04T00:59:13.622Z,1015.08
2017-05-04T01:00:24.848Z,1015.03
2017-05-04T01:01:35.893Z,1015.07
2017-05-04T01:02:46.923Z,1015.03
2017-05-04T01:03:58.148Z,1015.01
2017-05-04T01:05:09.389Z,1015.04
2017-05-04T01:06:20.420Z,1015.03
2017-05-04T01:07:31.456Z,1014.97
2017-05-04T01:08:42.759Z,1014.93
2017-05-04T01:09:53.797Z,1014.94
2017-05-04T01:11:05.039Z,1014.95
2017-05-04T01:12:16.275Z,1014.93
2017-05-04T01:13:27.344Z,1014.96
2017-05-04T01:14:38.390Z,1014.95
2017-05-04T01:15:49.425Z,1014.93
2017-05-04T01:17:00.658Z,1014.94
2017-05-04T01:18:11.881Z,1014.95
2017-05-04T01:19:22.971Z,1014.98
2017-05-04T01:20:34.019Z,1014.95
2017-05-04T01:21:45.084Z,1014.97
2017-05-04T01:22:56.126Z,1014.94
2017-05-04T01:24:07.164Z,1014.94
2017-05-04T01:25:18.393Z,1014.96
2017-05-04T01:26:29.423Z,1014.91
2017-05-04T01:27:40.477Z,1014.92
2017-05-04T01:28:51.516Z,1014.9
2017-05-04T01:30:02.559Z,1014.93
2017-05-04T01:31:13.595Z,1014.94
2017-05-04T01:32:24.620Z,1014.96
2017-05-04T01:33:35.654Z,1014.96
2017-05-04T01:34:46.886Z,1014.94
2017-05-04T01:35:57.925Z,1014.93
2017-05-04T01:37:09.011Z,1014.88
2017-05-04T01:38:20.054Z,1014.9
2017-05-04T01:39:31.098Z,1014.87
2017-05-04T01:40:42.124Z,1014.93
2017-05-04T01:41:53.145Z,1014.9
2017-05-04T01:43:04.174Z,1014.92
2017-05-04T01:44:15.208Z,1014.86
2017-05-04T01:45:26.229Z,1014.82
2017-05-04T01:46:37.323Z,1014.77
2017-05-04T01:47:48.362Z,1014.78
2017-05-04T01:48:59.388Z,1014.76
2017-05-04T01:50:10.633Z,1014.8
2017-05-04T01:51:21.875Z,1014.82
2017-05-04T01:52:32.905Z,1014.79
2017-05-04T01:53:43.941Z,1014.77
2017-05-04T01:54:54.979Z,1014.83
2017-05-04T01:56:06.011Z,1014.79
2017-05-04T01:57:17.092Z,1014.77
2017-05-04T01:58:28.124Z,1014.81
2017-05-04T01:59:39.163Z,1014.8
2017-05-04T02:00:50.197Z,1014.81
2017-05-04T02:02:01.231Z,1014.77
2017-05-04T02:03:12.272Z,1014.77
2017-05-04T02:04:23.303Z,1014.82
2017-05-04T02:05:34.336Z,1014.78
2017-05-04T02:06:45.401Z,1014.84
2017-05-04T02:07:56.690Z,1014.83
2017-05-04T02:09:07.933Z,1014.83
2017-05-04T02:10:18.957Z,1014.85
2017-05-04T02:11:29.989Z,1014.83
2017-05-04T02:12:41.024Z,1014.85
2017-05-04T02:13:52.067Z,1014.84
2017-05-04T02:15:03.101Z,1014.85
2017-05-04T02:16:14.125Z,1014.86
2017-05-04T02:17:25.158Z,1014.82
2017-05-04T02:18:36.242Z,1014.78
2017-05-04T02:19:47.471Z,1014.81
2017-05-04T02:20:58.518Z,1014.84
2017-05-04T02:22:09.555Z,1014.78
2017-05-04T02:23:20.580Z,1014.84
2017-05-04T02:24:31.661Z,1014.8
2017-05-04T02:25:42.692Z,1014.78
2017-05-04T02:26:53.725Z,1014.8
2017-05-04T02:28:04.749Z,1014.8
2017-05-04T02:29:15.790Z,1014.8
2017-05-04T02:30:27.021Z,1014.82
2017-05-04T02:31:38.061Z,1014.73
2017-05-04T02:32:49.088Z,1014.81
2017-05-04T02:34:00.328Z,1014.84
2017-05-04T02:35:11.362Z,1014.79
2017-05-04T02:36:22.404Z,1014.82
2017-05-04T02:37:33.442Z,1014.81
2017-05-04T02:38:44.478Z,1014.81
2017-05-04T02:39:55.516Z,1014.81
2017-05-04T02:41:06.606Z,1014.8
2017-05-04T02:42:17.630Z,1014.79
2017-05-04T02:43:28.854Z,1014.79
2017-05-04T02:44:40.098Z,1014.78
2017-05-04T02:45:51.136Z,1014.76
2017-05-04T02:47:02.167Z,1014.76
2017-05-04T02:48:13.207Z,1014.79
2017-05-04T02:49:24.445Z,1014.75
2017-05-04T02:50:35.522Z,1014.78
2017-05-04T02:51:46.556Z,1014.76
2017-05-04T02:52:57.587Z,1014.77
2017-05-04T02:54:08.628Z,1014.76
2017-05-04T02:55:19.664Z,1014.76
2017-05-04T02:56:30.703Z,1014.76
2017-05-04T02:57:41.731Z,1014.76
2017-05-04T02:58:52.774Z,1014.7
2017-05-04T03:00:03.816Z,1014.76
2017-05-04T03:01:14.906Z,1014.74
2017-05-04T03:02:25.956Z,1014.74
2017-05-04T03:03:36.979Z,1014.71
2017-05-04T03:04:48.021Z,1014.67
2017-05-04T03:05:59.054Z,1014.68
2017-05-04T03:07:10.087Z,1014.67
2017-05-04T03:08:21.123Z,1014.68
2017-05-04T03:09:32.353Z,1014.72
2017-05-04T03:10:43.382Z,1014.63
2017-05-04T03:11:54.469Z,1014.68
2017-05-04T03:13:05.701Z,1014.71
2017-05-04T03:14:16.734Z,1014.68
2017-05-04T03:15:27.979Z,1014.72
2017-05-04T03:16:39.000Z,1014.68
2017-05-04T03:17:50.020Z,1014.67
2017-05-04T03:19:01.055Z,1014.65
2017-05-04T03:20:12.088Z,1014.61
2017-05-04T03:21:23.121Z,1014.65
2017-05-04T03:22:34.214Z,1014.65
2017-05-04T03:23:45.245Z,1014.65
2017-05-04T03:24:56.279Z,1014.64
2017-05-04T03:26:07.320Z,1014.67
2017-05-04T03:27:18.350Z,1014.66
2017-05-04T03:28:29.428Z,1014.65
2017-05-04T03:29:40.469Z,1014.6
2017-05-04T03:30:51.494Z,1014.65
2017-05-04T03:32:02.522Z,1014.66
2017-05-04T03:33:13.562Z,1014.61
2017-05-04T03:34:24.603Z,1014.59
2017-05-04T03:35:35.631Z,1014.61
2017-05-04T03:36:46.868Z,1014.62
2017-05-04T03:37:57.926Z,1014.6
2017-05-04T03:39:09.161Z,1014.57
2017-05-04T03:40:20.195Z,1014.57
2017-05-04T03:41:31.202Z,1014.57
2017-05-04T03:42:42.237Z,1014.59
2017-05-04T03:43:53.260Z,1014.58
2017-05-04T03:45:04.299Z,1014.63
2017-05-04T03:46:15.390Z,1014.59
2017-05-04T03:47:26.431Z,1014.65
2017-05-04T03:48:37.475Z,1014.64
2017-05-04T03:49:48.934Z,1014.62
2017-05-04T03:50:59.960Z,1014.65
2017-05-04T03:52:10.982Z,1014.68
2017-05-04T03:53:22.017Z,1014.65
2017-05-04T03:54:33.052Z,1014.68
2017-05-04T03:55:44.145Z,1014.66
2017-05-04T03:56:55.582Z,1014.72
2017-05-04T03:58:06.640Z,1014.65
2017-05-04T03:59:17.703Z,1014.68
2017-05-04T04:00:28.741Z,1014.69
2017-05-04T04:01:39.774Z,1014.71
2017-05-04T04:02:50.817Z,1014.66
2017-05-04T04:04:01.882Z,1014.69
2017-05-04T04:05:12.912Z,1014.7
2017-05-04T04:06:23.999Z,1014.71
2017-05-04T04:07:35.027Z,1014.7
2017-05-04T04:08:46.074Z,1014.74
2017-05-04T04:09:57.109Z,1014.73
2017-05-04T04:11:08.140Z,1014.73
2017-05-04T04:12:19.170Z,1014.73
2017-05-04T04:13:30.203Z,1014.73
2017-05-04T04:14:41.232Z,1014.71
2017-05-04T04:15:52.477Z,1014.67
2017-05-04T04:17:03.560Z,1014.69
2017-05-04T04:18:14.600Z,1014.69
2017-05-04T04:19:25.647Z,1014.7
2017-05-04T04:20:36.687Z,1014.68
2017-05-04T04:21:47.924Z,1014.72
2017-05-04T04:22:59.167Z,1014.7
2017-05-04T04:24:10.202Z,1014.75
2017-05-04T04:25:21.441Z,1014.72
2017-05-04T04:26:32.469Z,1014.71
2017-05-04T04:27:43.551Z,1014.74
2017-05-04T04:28:54.574Z,1014.69
2017-05-04T04:30:05.603Z,1014.71
2017-05-04T04:31:16.825Z,1014.7
2017-05-04T04:32:27.890Z,1014.65
2017-05-04T04:33:39.121Z,1014.73
2017-05-04T04:34:50.154Z,1014.69
2017-05-04T04:36:01.209Z,1014.7
2017-05-04T04:37:12.229Z,1014.7
2017-05-04T04:38:23.258Z,1014.67
2017-05-04T04:39:34.295Z,1014.69
2017-05-04T04:40:45.330Z,1014.72
2017-05-04T04:41:56.362Z,1014.73
2017-05-04T04:43:07.590Z,1014.69
2017-05-04T04:44:18.817Z,1014.7
2017-05-04T04:45:29.895Z,1014.7
2017-05-04T04:46:40.922Z,1014.68
2017-05-04T04:47:51.964Z,1014.69
2017-05-04T04:49:02.993Z,1014.68
2017-05-04T04:50:14.228Z,1014.67
2017-05-04T04:51:25.283Z,1014.66
2017-05-04T04:52:36.340Z,1014.59
2017-05-04T04:53:47.586Z,1014.63
2017-05-04T04:54:58.877Z,1014.62
2017-05-04T04:56:10.310Z,1014.64
2017-05-04T04:57:21.343Z,1014.6
2017-05-04T04:58:32.415Z,1014.57
2017-05-04T04:59:43.654Z,1014.59
2017-05-04T05:00:54.898Z,1014.56
2017-05-04T05:02:05.933Z,1014.58
2017-05-04T05:03:16.957Z,1014.48
2017-05-04T05:04:28.196Z,1014.57
2017-05-04T05:05:39.225Z,1014.56
2017-05-04T05:06:50.459Z,1014.56
2017-05-04T05:08:01.500Z,1014.51
2017-05-04T05:09:12.532Z,1014.5
2017-05-04T05:10:23.614Z,1014.51
2017-05-04T05:11:34.647Z,1014.53
2017-05-04T05:12:45.687Z,1014.51
2017-05-04T05:13:56.726Z,1014.57
2017-05-04T05:15:07.957Z,1014.5
2017-05-04T05:16:18.985Z,1014.51
2017-05-04T05:17:30.013Z,1014.52
2017-05-04T05:18:41.058Z,1014.5
2017-05-04T05:19:52.488Z,1014.47
2017-05-04T05:21:03.582Z,1014.52
2017-05-04T05:22:14.603Z,1014.55
2017-05-04T05:23:25.669Z,1014.54
2017-05-04T05:24:36.698Z,1014.5
2017-05-04T05:25:47.718Z,1014.49
2017-05-04T05:26:58.755Z,1014.54
2017-05-04T05:28:09.795Z,1014.52
2017-05-04T05:29:21.028Z,1014.54
2017-05-04T05:30:32.056Z,1014.56
2017-05-04T05:31:43.352Z,1014.54
2017-05-04T05:32:54.588Z,1014.63
2017-05-04T05:34:05.617Z,1014.62
2017-05-04T05:35:16.644Z,1014.64
2017-05-04T05:36:27.670Z,1014.66
2017-05-04T05:37:38.692Z,1014.61
2017-05-04T05:38:49.732Z,1014.65
2017-05-04T05:40:00.767Z,1014.6
2017-05-04T05:41:11.995Z,1014.64
2017-05-04T05:42:23.031Z,1014.67
2017-05-04T05:43:34.276Z,1014.72
2017-05-04T05:44:45.312Z,1014.73
2017-05-04T05:45:56.347Z,1014.74
2017-05-04T05:47:07.782Z,1014.71
2017-05-04T05:48:18.824Z,1014.71
2017-05-04T05:49:29.914Z,1014.7
2017-05-04T05:50:40.939Z,1014.73
2017-05-04T05:51:52.170Z,1014.68
2017-05-04T05:53:03.187Z,1014.7
2017-05-04T05:54:14.237Z,1014.68
2017-05-04T05:55:25.672Z,1014.72
2017-05-04T05:56:36.702Z,1014.72
2017-05-04T05:57:47.732Z,1014.74
2017-05-04T05:58:58.811Z,1014.71
2017-05-04T06:00:09.861Z,1014.74
2017-05-04T06:01:20.915Z,1014.74
2017-05-04T06:02:31.936Z,1014.76
2017-05-04T06:03:43.184Z,1014.75
2017-05-04T06:04:54.432Z,1014.77
2017-05-04T06:06:05.469Z,1014.8
2017-05-04T06:07:16.499Z,1014.78
2017-05-04T06:08:27.530Z,1014.77
2017-05-04T06:09:38.618Z,1014.81
2017-05-04T06:10:49.653Z,1014.81
2017-05-04T06:12:00.686Z,1014.76
2017-05-04T06:13:11.714Z,1014.79
2017-05-04T06:14:22.756Z,1014.78
2017-05-04T06:15:33.795Z,1014.78
2017-05-04T06:16:45.028Z,1014.78
2017-05-04T06:17:56.054Z,1014.79
2017-05-04T06:19:07.083Z,1014.76
2017-05-04T06:20:18.162Z,1014.75
2017-05-04T06:21:29.192Z,1014.76
2017-05-04T06:22:40.215Z,1014.78
2017-05-04T06:23:51.245Z,1014.76
2017-05-04T06:25:02.283Z,1014.77
2017-05-04T06:26:13.535Z,1014.77
2017-05-04T06:27:24.571Z,1014.83
2017-05-04T06:28:35.805Z,1014.79
2017-05-04T06:29:47.038Z,1014.83
2017-05-04T06:30:58.116Z,1014.87
2017-05-04T06:32:09.136Z,1014.87
2017-05-04T06:33:20.165Z,1014.86
2017-05-04T06:34:31.219Z,1014.88
2017-05-04T06:35:42.666Z,1014.82
2017-05-04T06:36:53.689Z,1014.81
2017-05-04T06:38:04.725Z,1014.84
2017-05-04T06:39:15.761Z,1014.85
2017-05-04T06:40:26.798Z,1014.86
2017-05-04T06:41:37.906Z,1014.92
2017-05-04T06:42:48.942Z,1014.93
2017-05-04T06:44:00.187Z,1014.92
2017-05-04T06:45:11.225Z,1014.91
2017-05-04T06:46:22.459Z,1014.94
2017-05-04T06:47:33.517Z,1014.9
2017-05-04T06:48:44.563Z,1014.87
2017-05-04T06:49:55.610Z,1014.91
2017-05-04T06:51:06.840Z,1014.92
2017-05-04T06:52:17.874Z,1014.87
2017-05-04T06:53:28.905Z,1014.9
2017-05-04T06:54:39.928Z,1014.94
2017-05-04T06:55:50.949Z,1014.92
2017-05-04T06:57:01.974Z,1014.93
2017-05-04T06:58:13.013Z,1014.95
2017-05-04T06:59:24.095Z,1014.89
2017-05-04T07:00:35.131Z,1014.95
2017-05-04T07:01:46.162Z,1014.94
2017-05-04T07:02:57.409Z,1014.97
2017-05-04T07:04:08.443Z,1014.95
2017-05-04T07:05:19.477Z,1014.91
2017-05-04T07:06:30.513Z,1014.95
2017-05-04T07:07:41.544Z,1014.95
2017-05-04T07:08:52.621Z,1015.01
2017-05-04T07:10:03.646Z,1015.08
2017-05-04T07:11:15.084Z,1015.1
2017-05-04T07:12:26.112Z,1015.12
2017-05-04T07:13:37.150Z,1015.14
2017-05-04T07:14:48.194Z,1015.1
2017-05-04T07:15:59.245Z,1015.03
2017-05-04T07:17:10.269Z,1014.99
2017-05-04T07:18:21.526Z,1014.95
2017-05-04T07:19:32.655Z,1014.98
2017-05-04T07:20:43.697Z,1015.05
2017-05-04T07:21:54.737Z,1015.04
2017-05-04T07:23:05.971Z,1015.06
2017-05-04T07:24:17.201Z,1015
2017-05-04T07:25:28.425Z,1014.99
2017-05-04T07:26:39.459Z,1015.05
2017-05-04T07:27:50.699Z,1015.09
2017-05-04T07:29:01.938Z,1015.13
2017-05-04T07:30:12.991Z,1015.15
2017-05-04T07:31:24.230Z,1015.23
2017-05-04T07:32:35.464Z,1015.22
2017-05-04T07:33:46.518Z,1015.22
2017-05-04T07:34:57.551Z,1015.19
2017-05-04T07:36:08.640Z,1015.21
2017-05-04T07:37:19.661Z,1015.25
2017-05-04T07:38:30.692Z,1015.18
2017-05-04T07:39:41.940Z,1015.18
2017-05-04T07:40:53.217Z,1015.18
2017-05-04T07:42:04.650Z,1015.25
2017-05-04T07:43:15.690Z,1015.14
2017-05-04T07:44:26.721Z,1015.09
2017-05-04T07:45:37.759Z,1015.11
2017-05-04T07:46:48.846Z,1015.12
2017-05-04T07:48:00.089Z,1015.18
2017-05-04T07:49:11.121Z,1015.24
2017-05-04T07:50:22.159Z,1015.18
2017-05-04T07:51:33.389Z,1015.15
2017-05-04T07:52:44.411Z,1015.16
2017-05-04T07:53:55.667Z,1015.2
2017-05-04T07:55:06.698Z,1015.25
2017-05-04T07:56:17.741Z,1015.21
2017-05-04T07:57:28.770Z,1015.25
2017-05-04T07:58:40.000Z,1015.19
2017-05-04T07:59:51.245Z,1015.19
2017-05-04T08:01:02.501Z,1015.19
2017-05-04T08:02:13.532Z,1015.26
2017-05-04T08:03:24.571Z,1015.25
2017-05-04T08:04:35.661Z,1015.22
2017-05-04T08:05:46.706Z,1015.12
2017-05-04T08:06:57.748Z,1015.07
2017-05-04T08:08:08.781Z,1015.13
2017-05-04T08:09:19.826Z,1015.37
2017-05-04T08:10:31.062Z,1015.49
2017-05-04T08:11:42.324Z,1015.73
2017-05-04T08:12:53.550Z,1015.76
2017-05-04T08:14:05.041Z,1015.58
2017-05-04T08:15:16.080Z,1015.4
2017-05-04T08:16:27.104Z,1015.45
2017-05-04T08:17:38.176Z,1015.49
2017-05-04T08:18:49.231Z,1015.78
2017-05-04T08:20:00.276Z,1016.02
2017-05-04T08:21:11.315Z,1016.29
2017-05-04T08:22:22.555Z,1017.12
2017-05-04T08:23:33.601Z,1017.47
2017-05-04T08:24:44.705Z,1017.66
2017-05-04T08:25:55.765Z,1017.07
2017-05-04T08:27:06.801Z,1017.3
2017-05-04T08:28:17.849Z,1017.24
2017-05-04T08:29:29.115Z,1016.92
2017-05-04T08:30:40.162Z,1015.68
2017-05-04T08:31:51.205Z,1016.02
2017-05-04T08:33:02.254Z,1015.53
2017-05-04T08:34:13.504Z,1015.62
2017-05-04T08:35:24.601Z,1015.26
2017-05-04T08:36:35.639Z,1015.12
2017-05-04T08:37:46.690Z,1015.09
2017-05-04T08:38:57.740Z,1015.2
2017-05-04T08:40:08.982Z,1015.14
2017-05-04T08:41:20.010Z,1015.35
2017-05-04T08:42:31.253Z,1015.37
2017-05-04T08:43:42.301Z,1015.26
2017-05-04T08:44:53.354Z,1015.36
2017-05-04T08:46:04.453Z,1015.54
2017-05-04T08:47:15.494Z,1015.74
2017-05-04T08:48:26.738Z,1015.59
2017-05-04T08:49:37.775Z,1015.51
2017-05-04T08:50:48.812Z,1015.57
2017-05-04T08:51:59.857Z,1015.67
2017-05-04T08:53:10.899Z,1015.54
2017-05-04T08:54:21.939Z,1015.41
2017-05-04T08:55:32.978Z,1015.34
2017-05-04T08:56:44.017Z,1015.42
2017-05-04T08:57:55.054Z,1015.41
2017-05-04T08:59:06.107Z,1015.41
2017-05-04T09:00:17.152Z,1015.32
2017-05-04T09:01:28.178Z,1015.35
2017-05-04T09:02:39.223Z,1015.64
2017-05-04T09:03:50.301Z,1015.72
2017-05-04T09:05:01.330Z,1015.68
2017-05-04T09:06:12.405Z,1015.74
2017-05-04T09:07:23.453Z,1015.72
2017-05-04T09:08:34.498Z,1015.64
2017-05-04T09:09:45.547Z,1015.71
2017-05-04T09:10:56.788Z,1015.49
2017-05-04T09:12:07.832Z,1015.46
2017-05-04T09:13:19.124Z,1015.54
2017-05-04T09:14:30.165Z,1015.6
2017-05-04T09:15:41.206Z,1015.72
2017-05-04T09:16:52.253Z,1015.92
2017-05-04T09:18:03.292Z,1015.73
2017-05-04T09:19:14.528Z,1015.71
2017-05-04T09:20:25.761Z,1015.52
2017-05-04T09:21:37.008Z,1015.49
2017-05-04T09:22:48.265Z,1015.35
2017-05-04T09:23:59.356Z,1015.27
2017-05-04T09:25:10.604Z,1015.2
2017-05-04T09:26:21.642Z,1015.2
2017-05-04T09:27:32.678Z,1015.19
2017-05-04T09:28:43.711Z,1015.39
2017-05-04T09:29:54.747Z,1015.26
2017-05-04T09:31:05.791Z,1015.37
2017-05-04T09:32:16.837Z,1015.31
2017-05-04T09:33:27.882Z,1015.18
2017-05-04T09:34:39.170Z,1015.17
2017-05-04T09:35:50.209Z,1015.08
2017-05-04T09:37:01.453Z,1015.09
2017-05-04T09:38:12.491Z,1015.16
2017-05-04T09:39:23.520Z,1015.15
2017-05-04T09:40:34.764Z,1015.24
2017-05-04T09:41:45.797Z,1015.39
2017-05-04T09:42:57.041Z,1015.41
2017-05-04T09:44:08.104Z,1015.52
2017-05-04T09:45:19.152Z,1015.72
2017-05-04T09:46:30.388Z,1015.58
2017-05-04T09:47:41.432Z,1015.39
2017-05-04T09:48:52.476Z,1015.59
2017-05-04T09:50:03.559Z,1015.68
2017-05-04T09:51:14.801Z,1015.43
2017-05-04T09:52:25.836Z,1015.21
2017-05-04T09:53:36.872Z,1015.6
2017-05-04T09:54:47.921Z,1015.27
2017-05-04T09:55:58.952Z,1015.75
2017-05-04T09:57:10.006Z,1015.43
2017-05-04T09:58:21.051Z,1015.69
2017-05-04T09:59:32.086Z,1015.15
2017-05-04T10:00:43.144Z,1015.13
2017-05-04T10:01:54.234Z,1015.27
2017-05-04T10:03:05.271Z,1015.28
2017-05-04T10:04:16.512Z,1015.28
2017-05-04T10:05:27.750Z,1015.25
2017-05-04T10:06:38.788Z,1015.42
2017-05-04T10:07:50.025Z,1015.16
2017-05-04T10:09:01.075Z,1015.39
2017-05-04T10:10:12.306Z,1015.28
2017-05-04T10:11:23.401Z,1015.16
2017-05-04T10:12:34.640Z,1015.16
2017-05-04T10:13:45.668Z,1015.06
2017-05-04T10:14:56.711Z,1015.13
2017-05-04T10:16:07.767Z,1015.12
2017-05-04T10:17:18.811Z,1015.15
2017-05-04T10:18:29.857Z,1015.08
2017-05-04T10:19:40.887Z,1015.09
2017-05-04T10:20:51.920Z,1015.12
2017-05-04T10:22:03.020Z,1015.11
2017-05-04T10:23:14.047Z,1015.11
2017-05-04T10:24:25.083Z,1015.14
2017-05-04T10:25:36.125Z,1015.21
2017-05-04T10:26:47.160Z,1015.21
2017-05-04T10:27:58.206Z,1015.19
2017-05-04T10:29:09.250Z,1015.33
2017-05-04T10:30:20.306Z,1015.15
2017-05-04T10:31:31.341Z,1015.23
2017-05-04T10:32:42.436Z,1015.14
2017-05-04T10:33:53.471Z,1015.13
2017-05-04T10:35:04.498Z,1015.13
2017-05-04T10:36:15.515Z,1015.13
2017-05-04T10:37:26.549Z,1015.15
2017-05-04T10:38:38.001Z,1015.16
2017-05-04T10:39:49.242Z,1015.18
2017-05-04T10:41:00.507Z,1015.12
2017-05-04T10:42:11.564Z,1015.09
2017-05-04T10:43:22.657Z,1015.11
2017-05-04T10:44:33.696Z,1015.2
2017-05-04T10:45:44.723Z,1015.16
2017-05-04T10:46:55.770Z,1015.16
2017-05-04T10:48:06.832Z,1015.12
2017-05-04T10:49:17.867Z,1015.22
2017-05-04T10:50:29.104Z,1015.25
2017-05-04T10:51:40.142Z,1015.2
2017-05-04T10:52:51.185Z,1015.17
2017-05-04T10:54:02.294Z,1015.15
2017-05-04T10:55:13.331Z,1015.12
2017-05-04T10:56:24.367Z,1015.09
2017-05-04T10:57:35.396Z,1015.12
2017-05-04T10:58:46.631Z,1015.05
2017-05-04T10:59:57.670Z,1015.09
2017-05-04T11:01:08.717Z,1015.09
2017-05-04T11:02:19.970Z,1015.13
2017-05-04T11:03:31.205Z,1015.11
2017-05-04T11:04:42.234Z,1015.1
2017-05-04T11:05:53.482Z,1015.12
2017-05-04T11:07:04.520Z,1015.06
2017-05-04T11:08:15.548Z,1015.03
2017-05-04T11:09:26.788Z,1014.99
2017-05-04T11:10:37.824Z,1015.03
2017-05-04T11:11:48.910Z,1015.03
2017-05-04T11:12:59.940Z,1015.06
2017-05-04T11:14:10.971Z,1015
2017-05-04T11:15:22.003Z,1015.01
2017-05-04T11:16:33.249Z,1015.04
2017-05-04T11:17:44.478Z,1015.02
2017-05-04T11:18:55.925Z,1015.02
2017-05-04T11:20:06.951Z,1015
2017-05-04T11:21:18.038Z,1014.97
2017-05-04T11:22:29.079Z,1014.97
2017-05-04T11:23:40.321Z,1014.97
2017-05-04T11:24:51.368Z,1015
2017-05-04T11:26:02.603Z,1015.01
2017-05-04T11:27:13.836Z,1015.06
2017-05-04T11:28:24.864Z,1015.12
2017-05-04T11:29:35.904Z,1015.09
2017-05-04T11:30:46.945Z,1015.1
2017-05-04T11:31:58.027Z,1015.12
2017-05-04T11:33:09.065Z,1015.06
2017-05-04T11:34:20.105Z,1015.04
2017-05-04T11:35:31.534Z,1014.98
2017-05-04T11:36:42.566Z,1014.98
2017-05-04T11:37:53.602Z,1014.95
2017-05-04T11:39:04.630Z,1014.97
2017-05-04T11:40:15.674Z,1014.94
2017-05-04T11:41:26.907Z,1014.91
2017-05-04T11:42:37.990Z,1014.96
2017-05-04T11:43:49.017Z,1014.94
2017-05-04T11:45:00.249Z,1014.9
2017-05-04T11:46:11.282Z,1014.88
2017-05-04T11:47:22.315Z,1014.87
2017-05-04T11:48:33.360Z,1014.85
2017-05-04T11:49:44.400Z,1014.85
2017-05-04T11:50:55.432Z,1014.86
2017-05-04T11:52:06.474Z,1014.81
2017-05-04T11:53:17.755Z,1014.82
2017-05-04T11:54:28.791Z,1014.83
2017-05-04T11:55:40.026Z,1014.85
2017-05-04T11:56:51.053Z,1014.85
2017-05-04T11:58:02.098Z,1014.84
2017-05-04T11:59:13.338Z,1014.84
2017-05-04T12:00:24.588Z,1014.86
2017-05-04T12:01:35.622Z,1014.92
2017-05-04T12:02:46.659Z,1014.87
2017-05-04T12:03:57.696Z,1014.89
2017-05-04T12:05:08.925Z,1014.92
2017-05-04T12:06:19.953Z,1014.89
2017-05-04T12:07:31.187Z,1014.91
2017-05-04T12:08:42.208Z,1014.9
2017-05-04T12:09:53.235Z,1014.92
2017-05-04T12:11:04.517Z,1014.95
2017-05-04T12:12:15.551Z,1014.94
2017-05-04T12:13:26.581Z,1014.93
2017-05-04T12:14:37.623Z,1014.98
2017-05-04T12:15:48.658Z,1014.96
2017-05-04T12:16:59.883Z,1014.96
2017-05-04T12:18:10.924Z,1015.01
2017-05-04T12:19:21.946Z,1015.04
2017-05-04T12:20:32.981Z,1015.01
2017-05-04T12:21:44.222Z,1015.05
2017-05-04T12:22:55.255Z,1015.06
2017-05-04T12:24:06.289Z,1014.99
2017-05-04T12:25:17.371Z,1015.03
2017-05-04T12:26:28.394Z,1015.03
2017-05-04T12:27:39.433Z,1015.09
2017-05-04T12:28:50.674Z,1015.01
2017-05-04T12:30:01.712Z,1014.99
2017-05-04T12:31:12.742Z,1015.08
2017-05-04T12:32:23.982Z,1015.04
2017-05-04T12:33:35.017Z,1015
2017-05-04T12:34:46.045Z,1015.02
2017-05-04T12:35:57.129Z,1015.03
2017-05-04T12:37:08.163Z,1015.11
2017-05-04T12:38:19.206Z,1015.06
2017-05-04T12:39:30.241Z,1015
2017-05-04T12:40:41.275Z,1015.04
2017-05-04T12:41:52.310Z,1015.04
2017-05-04T12:43:03.339Z,1014.97
2017-05-04T12:44:14.367Z,1015.01
2017-05-04T12:45:25.400Z,1015.05
2017-05-04T12:46:36.432Z,1015.02
2017-05-04T12:47:47.491Z,1015.06
2017-05-04T12:48:58.532Z,1015.03
2017-05-04T12:50:09.591Z,1015.09
2017-05-04T12:51:20.626Z,1015.02
2017-05-04T12:52:31.716Z,1015.02
2017-05-04T12:53:42.758Z,1015.03
2017-05-04T12:54:53.797Z,1015.02
2017-05-04T12:56:04.834Z,1015
2017-05-04T12:57:16.118Z,1015.07
2017-05-04T12:58:27.164Z,1015.05
2017-05-04T12:59:38.196Z,1015.02
2017-05-04T13:00:49.225Z,1014.98
2017-05-04T13:02:00.463Z,1014.94
2017-05-04T13:03:11.703Z,1015.01
2017-05-04T13:04:22.930Z,1014.99
2017-05-04T13:05:33.968Z,1014.96
2017-05-04T13:06:45.001Z,1015.01
2017-05-04T13:07:56.036Z,1015.02
2017-05-04T13:09:07.062Z,1015.08
2017-05-04T13:10:18.306Z,1015.04
2017-05-04T13:11:29.333Z,1015.06
2017-05-04T13:12:40.369Z,1015.03
2017-05-04T13:13:51.399Z,1015
2017-05-04T13:15:02.481Z,1015.03
2017-05-04T13:16:13.497Z,1015
2017-05-04T13:17:24.532Z,1015.02
2017-05-04T13:18:35.570Z,1015.05
2017-05-04T13:19:46.809Z,1015
2017-05-04T13:20:57.834Z,1015.01
2017-05-04T13:22:08.863Z,1015.04
2017-05-04T13:23:19.900Z,1015.08
2017-05-04T13:24:30.984Z,1015.06
2017-05-04T13:25:42.416Z,1015.07
2017-05-04T13:26:53.441Z,1015.07
2017-05-04T13:28:04.477Z,1015.17
2017-05-04T13:29:15.513Z,1015.14
2017-05-04T13:30:26.554Z,1015.13
2017-05-04T13:31:37.596Z,1015.16
2017-05-04T13:32:48.657Z,1015.2
2017-05-04T13:33:59.896Z,1015.14
2017-05-04T13:35:10.977Z,1015.12
2017-05-04T13:36:22.219Z,1015.12
2017-05-04T13:37:33.255Z,1015.08
2017-05-04T13:38:44.483Z,1015.12
2017-05-04T13:39:55.516Z,1015.14
2017-05-04T13:41:06.550Z,1015.11
2017-05-04T13:42:17.584Z,1015.11
2017-05-04T13:43:28.819Z,1015.1
2017-05-04T13:44:40.063Z,1015.15
2017-05-04T13:45:51.146Z,1015.18
2017-05-04T13:47:02.189Z,1015.21
2017-05-04T13:48:13.217Z,1015.22
2017-05-04T13:49:24.474Z,1015.2
2017-05-04T13:50:35.712Z,1015.23
2017-05-04T13:51:46.747Z,1015.21
2017-05-04T13:52:57.785Z,1015.19
2017-05-04T13:54:08.821Z,1015.17
2017-05-04T13:55:20.055Z,1015.16
2017-05-04T13:56:31.137Z,1015.25
2017-05-04T13:57:42.203Z,1015.21
2017-05-04T13:58:53.240Z,1015.18
2017-05-04T14:00:04.490Z,1015.22
2017-05-04T14:01:15.525Z,1015.18
2017-05-04T14:02:26.632Z,1015.24
2017-05-04T14:03:37.660Z,1015.22
2017-05-04T14:04:48.893Z,1015.22
2017-05-04T14:05:59.926Z,1015.23
2017-05-04T14:07:11.163Z,1015.22
2017-05-04T14:08:22.606Z,1015.21
2017-05-04T14:09:33.643Z,1015.17
2017-05-04T14:10:44.672Z,1015.21
2017-05-04T14:11:55.904Z,1015.18
2017-05-04T14:13:06.926Z,1015.13
2017-05-04T14:14:18.010Z,1015.21
2017-05-04T14:15:29.041Z,1015.14
2017-05-04T14:16:40.075Z,1015.15
2017-05-04T14:17:51.109Z,1015.18
2017-05-04T14:19:02.144Z,1015.19
2017-05-04T14:20:13.177Z,1015.16
2017-05-04T14:21:24.205Z,1015.14
2017-05-04T14:22:35.241Z,1015.06
2017-05-04T14:23:46.324Z,1015.1